createdAt,value
2022-11-06T00:00:57.441Z,964.69
2022-11-06T00:01:57.591Z,964.6
2022-11-06T00:02:57.539Z,964.58
2022-11-06T00:03:58.733Z,964.61
2022-11-06T00:04:57.538Z,964.6
2022-11-06T00:05:57.501Z,964.55
2022-11-06T00:06:57.472Z,964.57
2022-11-06T00:07:57.548Z,964.58
2022-11-06T00:08:57.513Z,964.65
2022-11-06T00:09:57.583Z,964.66
2022-11-06T00:10:57.550Z,964.63
2022-11-06T00:11:57.623Z,964.62
2022-11-06T00:12:58.768Z,964.65
2022-11-06T00:13:57.550Z,964.67
2022-11-06T00:15:58.869Z,964.71
2022-11-06T00:16:57.561Z,964.7
2022-11-06T00:17:57.631Z,964.73
2022-11-06T00:18:58.803Z,964.76
2022-11-06T00:19:57.566Z,964.79
2022-11-06T00:20:57.468Z,964.76
2022-11-06T00:21:57.595Z,964.8
2022-11-06T00:23:57.637Z,964.77
2022-11-06T00:24:57.493Z,964.71
2022-11-06T00:25:57.569Z,964.72
2022-11-06T00:27:57.496Z,964.68
2022-11-06T00:28:57.587Z,964.64
2022-11-06T00:29:57.643Z,964.59
2022-11-06T00:30:57.495Z,964.53
2022-11-06T00:32:57.505Z,964.48
2022-11-06T00:33:57.611Z,964.51
2022-11-06T00:34:57.575Z,964.47
2022-11-06T00:35:59.085Z,964.53
2022-11-06T00:36:57.509Z,964.52
2022-11-06T00:37:57.580Z,964.48
2022-11-06T00:38:58.899Z,964.47
2022-11-06T00:39:57.615Z,964.42
2022-11-06T00:40:57.589Z,964.37
2022-11-06T00:41:58.927Z,964.33
2022-11-06T00:42:57.516Z,964.35
2022-11-06T00:43:57.589Z,964.32
2022-11-06T00:44:57.536Z,964.29
2022-11-06T00:45:57.534Z,964.25
2022-11-06T00:46:57.588Z,964.24
2022-11-06T00:48:57.685Z,964.23
2022-11-06T00:49:57.548Z,964.26
2022-11-06T00:50:57.675Z,964.16
2022-11-06T00:51:57.633Z,964.17
2022-11-06T00:52:58.994Z,964.12
2022-11-06T00:53:57.560Z,964.05
2022-11-06T00:54:57.636Z,964.07
2022-11-06T00:55:59.003Z,964.05
2022-11-06T00:56:57.567Z,964.1
2022-11-06T00:57:57.558Z,964.09
2022-11-06T00:58:57.723Z,964.12
2022-11-06T00:59:57.566Z,964.11
2022-11-06T01:00:57.652Z,964.09
2022-11-06T01:01:57.795Z,964.1
2022-11-06T01:02:57.823Z,964.11
2022-11-06T01:03:57.654Z,964.08
2022-11-06T01:06:57.660Z,964.13
2022-11-06T01:07:58.811Z,964.14
2022-11-06T01:08:57.685Z,964.17
2022-11-06T01:09:57.659Z,964.21
2022-11-06T01:10:58.754Z,964.28
2022-11-06T01:12:57.732Z,964.26
2022-11-06T01:13:57.750Z,964.32
2022-11-06T01:14:57.606Z,964.3
2022-11-06T01:15:57.672Z,964.28
2022-11-06T01:17:57.825Z,964.32
2022-11-06T01:18:57.690Z,964.33
2022-11-06T01:19:58.608Z,964.37
2022-11-06T01:20:57.713Z,964.39
2022-11-06T01:21:57.677Z,964.4
2022-11-06T01:23:57.633Z,964.41
2022-11-06T01:24:58.696Z,964.39
2022-11-06T01:25:57.750Z,964.36
2022-11-06T01:27:57.638Z,964.41
2022-11-06T01:28:57.632Z,964.42
2022-11-06T01:29:57.729Z,964.46
2022-11-06T01:30:57.795Z,964.42
2022-11-06T01:31:57.645Z,964.46
2022-11-06T01:32:57.723Z,964.42
2022-11-06T01:33:57.800Z,964.38
2022-11-06T01:34:57.659Z,964.39
2022-11-06T01:35:57.733Z,964.42
2022-11-06T01:37:57.915Z,964.48
2022-11-06T01:38:57.743Z,964.47
2022-11-06T01:40:57.768Z,964.49
2022-11-06T01:41:57.735Z,964.44
2022-11-06T01:42:57.676Z,964.42
2022-11-06T01:43:57.783Z,964.39
2022-11-06T01:44:57.741Z,964.35
2022-11-06T01:45:58.733Z,964.34
2022-11-06T01:46:57.778Z,964.28
2022-11-06T01:47:57.739Z,964.25
2022-11-06T01:48:57.820Z,964.22
2022-11-06T01:49:57.793Z,964.19
2022-11-06T01:50:57.864Z,964.22
2022-11-06T01:52:57.784Z,964.19
2022-11-06T01:53:57.864Z,964.16
2022-11-06T01:54:57.833Z,964.1
2022-11-06T01:55:57.794Z,964.11
2022-11-06T01:56:57.870Z,964.1
2022-11-06T01:57:57.833Z,964.07
2022-11-06T01:58:57.793Z,964.03
2022-11-06T01:59:57.853Z,963.98
2022-11-06T02:00:57.700Z,964
2022-11-06T02:01:57.909Z,963.99
2022-11-06T02:03:57.816Z,964.07
2022-11-06T02:04:57.744Z,964.08
2022-11-06T02:05:57.769Z,964.11
2022-11-06T02:06:57.844Z,964.09
2022-11-06T02:07:57.829Z,964.07
2022-11-06T02:08:57.734Z,964.04
2022-11-06T02:09:57.852Z,963.97
2022-11-06T02:10:57.736Z,963.98
2022-11-06T02:11:57.734Z,963.93
2022-11-06T02:12:57.737Z,963.94
2022-11-06T02:13:57.823Z,963.93
2022-11-06T02:14:57.785Z,963.92
2022-11-06T02:16:57.880Z,963.86
2022-11-06T02:18:57.989Z,963.83
2022-11-06T02:19:57.839Z,963.86
2022-11-06T02:20:57.764Z,963.83
2022-11-06T02:21:57.757Z,963.82
2022-11-06T02:22:57.846Z,963.81
2022-11-06T02:24:57.891Z,963.79
2022-11-06T02:25:57.884Z,963.77
2022-11-06T02:28:57.765Z,963.78
2022-11-06T02:29:58.934Z,963.74
2022-11-06T02:30:57.898Z,963.75
2022-11-06T02:31:57.848Z,963.76
2022-11-06T02:32:57.809Z,963.77
2022-11-06T02:35:57.826Z,963.69
2022-11-06T02:36:57.797Z,963.76
2022-11-06T02:37:58.052Z,963.75
2022-11-06T02:38:58.946Z,963.74
2022-11-06T02:39:57.900Z,963.73
2022-11-06T02:40:57.825Z,963.7
2022-11-06T02:41:57.799Z,963.71
2022-11-06T02:42:57.804Z,963.68
2022-11-06T02:43:58.982Z,963.67
2022-11-06T02:44:57.851Z,963.63
2022-11-06T02:45:57.933Z,963.62
2022-11-06T02:46:57.861Z,963.59
2022-11-06T02:47:57.931Z,963.61
2022-11-06T02:48:57.828Z,963.58
2022-11-06T02:49:59.537Z,963.6
2022-11-06T02:50:57.826Z,963.57
2022-11-06T02:51:57.849Z,963.6
2022-11-06T02:52:59.039Z,963.52
2022-11-06T02:54:58.035Z,963.46
2022-11-06T02:55:57.891Z,963.43
2022-11-06T02:56:57.832Z,963.4
2022-11-06T02:57:57.912Z,963.42
2022-11-06T02:58:57.842Z,963.34
2022-11-06T02:59:57.951Z,963.33
2022-11-06T03:00:57.854Z,963.3
2022-11-06T03:01:58.031Z,963.24
2022-11-06T03:02:58.048Z,963.22
2022-11-06T03:03:57.857Z,963.2
2022-11-06T03:04:57.857Z,963.17
2022-11-06T03:05:57.877Z,963.14
2022-11-06T03:06:57.919Z,963.12
2022-11-06T03:07:57.864Z,963.13
2022-11-06T03:08:57.873Z,963.17
2022-11-06T03:09:57.914Z,963.12
2022-11-06T03:10:57.996Z,963.13
2022-11-06T03:11:57.966Z,963.12
2022-11-06T03:13:58.000Z,963.14
2022-11-06T03:14:57.996Z,963.1
2022-11-06T03:15:57.887Z,963.13
2022-11-06T03:17:58.110Z,963.14
2022-11-06T03:18:57.919Z,963.16
2022-11-06T03:19:57.899Z,963.15
2022-11-06T03:20:57.849Z,963.14
2022-11-06T03:21:57.909Z,963.13
2022-11-06T03:23:57.985Z,963.15
2022-11-06T03:24:57.916Z,963.19
2022-11-06T03:25:58.013Z,963.24
2022-11-06T03:26:57.907Z,963.21
2022-11-06T03:27:57.953Z,963.27
2022-11-06T03:28:58.018Z,963.22
2022-11-06T03:29:57.917Z,963.21
2022-11-06T03:30:57.950Z,963.19
2022-11-06T03:31:58.023Z,963.17
2022-11-06T03:33:57.952Z,963.16
2022-11-06T03:34:58.028Z,963.17
2022-11-06T03:35:58.003Z,963.18
2022-11-06T03:36:57.935Z,963.19
2022-11-06T03:37:57.934Z,963.23
2022-11-06T03:38:57.991Z,963.25
2022-11-06T03:39:57.941Z,963.29
2022-11-06T03:40:58.030Z,963.31
2022-11-06T03:41:57.949Z,963.32
2022-11-06T03:42:57.947Z,963.23
2022-11-06T03:44:58.128Z,963.24
2022-11-06T03:45:57.976Z,963.19
2022-11-06T03:46:58.049Z,963.23
2022-11-06T03:47:58.117Z,963.2
2022-11-06T03:48:57.965Z,963.21
2022-11-06T03:50:57.965Z,963.23
2022-11-06T03:51:57.978Z,963.25
2022-11-06T03:52:58.049Z,963.24
2022-11-06T03:53:57.984Z,963.26
2022-11-06T03:54:57.979Z,963.28
2022-11-06T03:55:58.058Z,963.3
2022-11-06T03:56:57.996Z,963.27
2022-11-06T03:58:58.059Z,963.24
2022-11-06T03:59:58.022Z,963.22
2022-11-06T04:00:57.993Z,963.2
2022-11-06T04:02:58.169Z,963.23
2022-11-06T04:06:58.221Z,963.2
2022-11-06T04:07:58.019Z,963.21
2022-11-06T04:08:58.003Z,963.17
2022-11-06T04:10:58.011Z,963.15
2022-11-06T04:12:58.228Z,963.16
2022-11-06T04:14:58.034Z,963.17
2022-11-06T04:15:58.117Z,963.18
2022-11-06T04:16:58.190Z,963.16
2022-11-06T04:17:58.027Z,963.13
2022-11-06T04:18:58.113Z,963.2
2022-11-06T04:19:58.027Z,963.22
2022-11-06T04:21:58.226Z,963.23
2022-11-06T04:22:58.018Z,963.22
2022-11-06T04:23:58.054Z,963.19
2022-11-06T04:24:58.049Z,963.14
2022-11-06T04:25:58.043Z,963.2
2022-11-06T04:26:58.171Z,963.19
2022-11-06T04:27:58.139Z,963.18
2022-11-06T04:28:58.197Z,963.16
2022-11-06T04:29:58.065Z,963.17
2022-11-06T04:30:58.127Z,963.13
2022-11-06T04:31:58.072Z,963.14
2022-11-06T04:33:00.217Z,963.12
2022-11-06T04:34:58.061Z,963.11
2022-11-06T04:35:58.162Z,963.13
2022-11-06T04:38:58.187Z,963.17
2022-11-06T04:40:58.102Z,963.15
2022-11-06T04:41:58.092Z,963.11
2022-11-06T04:43:58.193Z,963.14
2022-11-06T04:44:58.200Z,963.1
2022-11-06T04:45:58.256Z,963.12
2022-11-06T04:48:58.223Z,963.13
2022-11-06T04:49:58.113Z,963.16
2022-11-06T04:51:58.107Z,963.13
2022-11-06T04:52:58.121Z,963.15
2022-11-06T04:53:58.187Z,963.1
2022-11-06T04:54:58.109Z,963.12
2022-11-06T04:55:58.127Z,963.08
2022-11-06T04:56:58.205Z,963.06
2022-11-06T04:57:58.124Z,963.01
2022-11-06T04:58:58.248Z,963
2022-11-06T04:59:58.125Z,962.94
2022-11-06T05:00:58.364Z,962.88
2022-11-06T05:01:58.288Z,962.83
2022-11-06T05:02:58.139Z,962.77
2022-11-06T05:03:58.180Z,962.78
2022-11-06T05:04:58.246Z,962.75
2022-11-06T05:05:58.217Z,962.71
2022-11-06T05:06:58.289Z,962.69
2022-11-06T05:08:58.147Z,962.64
2022-11-06T05:10:58.335Z,962.58
2022-11-06T05:12:58.266Z,962.6
2022-11-06T05:13:58.189Z,962.57
2022-11-06T05:14:58.168Z,962.59
2022-11-06T05:15:58.161Z,962.63
2022-11-06T05:16:58.163Z,962.65
2022-11-06T05:17:59.353Z,962.62
2022-11-06T05:18:58.183Z,962.63
2022-11-06T05:19:58.268Z,962.68
2022-11-06T05:20:58.336Z,962.66
2022-11-06T05:21:58.196Z,962.62
2022-11-06T05:22:58.283Z,962.64
2022-11-06T05:23:58.208Z,962.62
2022-11-06T05:24:58.188Z,962.6
2022-11-06T05:25:58.274Z,962.55
2022-11-06T05:26:59.731Z,962.56
2022-11-06T05:27:58.480Z,962.54
2022-11-06T05:28:58.276Z,962.58
2022-11-06T05:29:58.206Z,962.56
2022-11-06T05:30:58.311Z,962.57
2022-11-06T05:31:58.215Z,962.51
2022-11-06T05:32:58.225Z,962.52
2022-11-06T05:33:58.201Z,962.54
2022-11-06T05:34:58.279Z,962.56
2022-11-06T05:35:58.213Z,962.58
2022-11-06T05:36:58.206Z,962.56
2022-11-06T05:37:58.288Z,962.66
2022-11-06T05:38:58.234Z,962.69
2022-11-06T05:39:58.229Z,962.68
2022-11-06T05:40:58.289Z,962.67
2022-11-06T05:41:58.235Z,962.7
2022-11-06T05:42:58.329Z,962.69
2022-11-06T05:44:58.363Z,962.66
2022-11-06T05:45:58.336Z,962.73
2022-11-06T05:46:58.403Z,962.71
2022-11-06T05:47:58.227Z,962.66
2022-11-06T05:49:58.333Z,962.67
2022-11-06T05:52:58.354Z,962.71
2022-11-06T05:53:58.283Z,962.68
2022-11-06T05:54:58.352Z,962.66
2022-11-06T05:55:58.272Z,962.64
2022-11-06T05:56:58.271Z,962.57
2022-11-06T05:57:58.354Z,962.54
2022-11-06T05:58:58.279Z,962.51
2022-11-06T06:00:58.276Z,962.49
2022-11-06T06:01:58.361Z,962.51
2022-11-06T06:02:58.323Z,962.47
2022-11-06T06:03:58.358Z,962.46
2022-11-06T06:04:59.345Z,962.45
2022-11-06T06:05:58.395Z,962.44
2022-11-06T06:06:58.282Z,962.43
2022-11-06T06:07:58.431Z,962.42
2022-11-06T06:08:58.291Z,962.44
2022-11-06T06:10:58.365Z,962.43
2022-11-06T06:11:58.335Z,962.42
2022-11-06T06:12:58.373Z,962.41
2022-11-06T06:13:58.304Z,962.37
2022-11-06T06:14:58.301Z,962.36
2022-11-06T06:16:58.451Z,962.35
2022-11-06T06:17:58.425Z,962.32
2022-11-06T06:18:58.375Z,962.33
2022-11-06T06:19:58.283Z,962.3
2022-11-06T06:22:58.459Z,962.29
2022-11-06T06:23:58.330Z,962.31
2022-11-06T06:24:58.359Z,962.32
2022-11-06T06:25:58.333Z,962.34
2022-11-06T06:26:58.429Z,962.39
2022-11-06T06:27:58.386Z,962.41
2022-11-06T06:28:58.458Z,962.45
2022-11-06T06:29:58.341Z,962.47
2022-11-06T06:31:01.446Z,962.52
2022-11-06T06:31:58.348Z,962.53
2022-11-06T06:32:58.343Z,962.58
2022-11-06T06:33:59.480Z,962.57
2022-11-06T06:34:59.472Z,962.6
2022-11-06T06:35:58.360Z,962.57
2022-11-06T06:36:59.479Z,962.55
2022-11-06T06:37:58.358Z,962.48
2022-11-06T06:38:58.377Z,962.44
2022-11-06T06:39:58.376Z,962.43
2022-11-06T06:41:58.486Z,962.45
2022-11-06T06:43:58.514Z,962.43
2022-11-06T06:44:58.463Z,962.42
2022-11-06T06:45:58.380Z,962.41
2022-11-06T06:46:58.483Z,962.37
2022-11-06T06:47:58.382Z,962.39
2022-11-06T06:48:58.412Z,962.4
2022-11-06T06:51:58.592Z,962.37
2022-11-06T06:52:58.415Z,962.41
2022-11-06T06:53:58.385Z,962.39
2022-11-06T06:54:58.402Z,962.33
2022-11-06T06:55:58.498Z,962.32
2022-11-06T06:56:59.579Z,962.23
2022-11-06T06:57:58.414Z,962.21
2022-11-06T06:58:58.492Z,962.19
2022-11-06T06:59:58.406Z,962.14
2022-11-06T07:00:58.412Z,962.12
2022-11-06T07:02:58.415Z,962.18
2022-11-06T07:04:02.871Z,962.27
2022-11-06T07:04:58.523Z,962.21
2022-11-06T07:05:58.435Z,962.23
2022-11-06T07:06:58.544Z,962.19
2022-11-06T07:07:58.443Z,962.21
2022-11-06T07:08:58.390Z,962.14
2022-11-06T07:09:58.559Z,962.11
2022-11-06T07:10:58.558Z,962.07
2022-11-06T07:11:59.911Z,962.08
2022-11-06T07:12:58.453Z,962.07
2022-11-06T07:13:58.514Z,962.05
2022-11-06T07:14:58.443Z,962.01
2022-11-06T07:15:58.472Z,962
2022-11-06T07:16:58.438Z,961.95
2022-11-06T07:20:58.513Z,961.96
2022-11-06T07:21:58.483Z,962
2022-11-06T07:22:58.525Z,961.97
2022-11-06T07:23:58.466Z,961.98
2022-11-06T07:24:58.461Z,961.95
2022-11-06T07:25:58.576Z,961.89
2022-11-06T07:26:58.602Z,961.85
2022-11-06T07:28:02.488Z,961.81
2022-11-06T07:28:58.536Z,961.78
2022-11-06T07:29:58.606Z,961.75
2022-11-06T07:30:58.476Z,961.7
2022-11-06T07:31:58.495Z,961.71
2022-11-06T07:32:58.493Z,961.69
2022-11-06T07:33:58.475Z,961.71
2022-11-06T07:34:58.496Z,961.73
2022-11-06T07:35:58.496Z,961.75
2022-11-06T07:36:58.596Z,961.78
2022-11-06T07:37:58.716Z,961.75
2022-11-06T07:38:58.516Z,961.72
2022-11-06T07:39:58.496Z,961.71
2022-11-06T07:40:58.546Z,961.75
2022-11-06T07:41:58.495Z,961.71
2022-11-06T07:43:58.626Z,961.66
2022-11-06T07:44:58.535Z,961.65
2022-11-06T07:45:58.525Z,961.62
2022-11-06T07:46:58.663Z,961.58
2022-11-06T07:47:59.268Z,961.51
2022-11-06T07:48:58.539Z,961.46
2022-11-06T07:49:58.647Z,961.47
2022-11-06T07:50:58.634Z,961.43
2022-11-06T07:51:58.534Z,961.41
2022-11-06T07:52:58.675Z,961.45
2022-11-06T07:53:58.635Z,961.41
2022-11-06T07:54:58.544Z,961.38
2022-11-06T07:55:58.539Z,961.41
2022-11-06T07:56:58.549Z,961.37
2022-11-06T07:58:58.653Z,961.27
2022-11-06T07:59:58.659Z,961.26
2022-11-06T08:00:58.708Z,961.29
2022-11-06T08:01:58.668Z,961.27
2022-11-06T08:02:58.555Z,961.28
2022-11-06T08:03:58.556Z,961.32
2022-11-06T08:04:58.587Z,961.27
2022-11-06T08:05:58.652Z,961.28
2022-11-06T08:06:58.583Z,961.25
2022-11-06T08:07:58.689Z,961.19
2022-11-06T08:08:58.998Z,961.15
2022-11-06T08:09:59.923Z,961.17
2022-11-06T08:11:58.668Z,961.13
2022-11-06T08:12:58.601Z,961.2
2022-11-06T08:13:58.697Z,961.21
2022-11-06T08:14:58.578Z,961.17
2022-11-06T08:16:00.165Z,961.14
2022-11-06T08:16:58.597Z,961.24
2022-11-06T08:17:58.598Z,961.21
2022-11-06T08:18:58.597Z,961.19
2022-11-06T08:19:58.601Z,961.17
2022-11-06T08:20:58.670Z,961.2
2022-11-06T08:21:59.973Z,961.19
2022-11-06T08:22:58.614Z,961.23
2022-11-06T08:23:58.610Z,961.19
2022-11-06T08:24:58.618Z,961.11
2022-11-06T08:25:58.608Z,961.15
2022-11-06T08:26:58.683Z,961.17
2022-11-06T08:27:58.656Z,961.23
2022-11-06T08:28:58.725Z,961.19
2022-11-06T08:29:58.683Z,961.15
2022-11-06T08:30:59.999Z,961.13
2022-11-06T08:31:58.714Z,961.12
2022-11-06T08:32:58.624Z,961.14
2022-11-06T08:33:58.626Z,961.15
2022-11-06T08:34:58.630Z,961.16
2022-11-06T08:35:58.641Z,961.15
2022-11-06T08:36:58.630Z,961.13
2022-11-06T08:37:58.736Z,961.12
2022-11-06T08:38:58.640Z,961.15
2022-11-06T08:39:58.788Z,961.13
2022-11-06T08:40:58.644Z,961.06
2022-11-06T08:41:58.799Z,961.08
2022-11-06T08:42:58.689Z,961.03
2022-11-06T08:43:58.735Z,961.02
2022-11-06T08:44:58.819Z,961
2022-11-06T08:45:58.647Z,960.98
2022-11-06T08:46:58.660Z,960.91
2022-11-06T08:47:58.657Z,960.89
2022-11-06T08:48:58.772Z,960.85
2022-11-06T08:49:58.658Z,960.86
2022-11-06T08:50:58.806Z,960.79
2022-11-06T08:51:58.666Z,960.77
2022-11-06T08:52:58.676Z,960.73
2022-11-06T08:53:58.798Z,960.65
2022-11-06T08:54:58.685Z,960.59
2022-11-06T08:55:58.672Z,960.48
2022-11-06T08:57:01.126Z,960.43
2022-11-06T08:57:58.711Z,960.44
2022-11-06T08:58:58.684Z,960.42
2022-11-06T09:00:00.354Z,960.43
2022-11-06T09:00:58.717Z,960.46
2022-11-06T09:01:58.842Z,960.48
2022-11-06T09:02:58.709Z,960.47
2022-11-06T09:03:58.709Z,960.53
2022-11-06T09:04:59.677Z,960.59
2022-11-06T09:05:58.698Z,960.58
2022-11-06T09:06:58.717Z,960.62
2022-11-06T09:07:59.681Z,960.63
2022-11-06T09:08:58.709Z,960.72
2022-11-06T09:09:58.820Z,960.73
2022-11-06T09:11:58.806Z,960.77
2022-11-06T09:12:58.750Z,960.8
2022-11-06T09:13:58.728Z,960.77
2022-11-06T09:14:58.720Z,960.79
2022-11-06T09:15:58.811Z,960.82
2022-11-06T09:16:58.884Z,960.85
2022-11-06T09:17:58.851Z,960.87
2022-11-06T09:19:58.747Z,960.89
2022-11-06T09:20:58.864Z,960.95
2022-11-06T09:21:58.748Z,960.96
2022-11-06T09:22:58.783Z,960.97
2022-11-06T09:23:58.940Z,961.01
2022-11-06T09:25:03.497Z,961.08
2022-11-06T09:25:58.884Z,961.04
2022-11-06T09:26:58.764Z,961.09
2022-11-06T09:28:58.837Z,961.1
2022-11-06T09:29:58.797Z,961.08
2022-11-06T09:30:58.763Z,961.06
2022-11-06T09:31:58.766Z,961
2022-11-06T09:32:58.771Z,961.01
2022-11-06T09:33:58.779Z,960.98
2022-11-06T09:34:58.786Z,960.99
2022-11-06T09:35:58.774Z,960.97
2022-11-06T09:36:58.778Z,960.96
2022-11-06T09:37:58.903Z,960.89
2022-11-06T09:38:58.936Z,960.85
2022-11-06T09:40:03.303Z,960.78
2022-11-06T09:40:58.992Z,960.74
2022-11-06T09:41:58.891Z,960.77
2022-11-06T09:42:58.794Z,960.75
2022-11-06T09:44:04.957Z,960.78
2022-11-06T09:44:59.038Z,960.81
2022-11-06T09:45:58.803Z,960.8
2022-11-06T09:46:58.806Z,960.74
2022-11-06T09:48:58.912Z,960.72
2022-11-06T09:49:58.823Z,960.69
2022-11-06T09:50:58.899Z,960.59
2022-11-06T09:51:58.814Z,960.54
2022-11-06T09:53:03.171Z,960.47
2022-11-06T09:53:58.850Z,960.46
2022-11-06T09:54:59.393Z,960.4
2022-11-06T09:55:59.216Z,960.31
2022-11-06T09:56:58.826Z,960.3
2022-11-06T09:57:58.848Z,960.27
2022-11-06T09:58:58.850Z,960.29
2022-11-06T09:59:58.837Z,960.32
2022-11-06T10:00:58.878Z,960.3
2022-11-06T10:01:58.933Z,960.37
2022-11-06T10:02:58.851Z,960.35
2022-11-06T10:04:58.923Z,960.33
2022-11-06T10:05:58.890Z,960.34
2022-11-06T10:06:58.877Z,960.35
2022-11-06T10:07:58.857Z,960.32
2022-11-06T10:08:58.959Z,960.34
2022-11-06T10:09:58.856Z,960.35
2022-11-06T10:10:58.868Z,960.4
2022-11-06T10:11:58.930Z,960.42
2022-11-06T10:12:58.873Z,960.43
2022-11-06T10:13:58.871Z,960.44
2022-11-06T10:14:58.926Z,960.42
2022-11-06T10:15:58.869Z,960.4
2022-11-06T10:16:58.875Z,960.43
2022-11-06T10:17:59.995Z,960.39
2022-11-06T10:18:58.969Z,960.36
2022-11-06T10:19:58.974Z,960.32
2022-11-06T10:20:58.893Z,960.36
2022-11-06T10:21:59.010Z,960.41
2022-11-06T10:22:58.880Z,960.37
2022-11-06T10:23:59.063Z,960.41
2022-11-06T10:25:59.005Z,960.38
2022-11-06T10:27:59.150Z,960.37
2022-11-06T10:28:58.994Z,960.39
2022-11-06T10:29:58.925Z,960.36
2022-11-06T10:30:58.903Z,960.33
2022-11-06T10:32:58.984Z,960.32
2022-11-06T10:33:59.072Z,960.28
2022-11-06T10:34:58.984Z,960.25
2022-11-06T10:36:59.090Z,960.24
2022-11-06T10:37:58.999Z,960.23
2022-11-06T10:38:58.920Z,960.17
2022-11-06T10:42:00.224Z,960.11
2022-11-06T10:42:59.055Z,960.13
2022-11-06T10:43:58.940Z,960.12
2022-11-06T10:44:58.947Z,960.11
2022-11-06T10:45:59.049Z,960.13
2022-11-06T10:47:59.027Z,960.12
2022-11-06T10:48:58.958Z,960.15
2022-11-06T10:49:58.957Z,960.13
2022-11-06T10:50:59.147Z,960.14
2022-11-06T10:51:59.074Z,960.1
2022-11-06T10:52:59.064Z,960.07
2022-11-06T10:53:58.966Z,960.09
2022-11-06T10:54:58.985Z,960.06
2022-11-06T10:55:58.969Z,960.09
2022-11-06T10:56:58.974Z,960.1
2022-11-06T10:57:58.980Z,960.07
2022-11-06T10:59:59.092Z,960.05
2022-11-06T11:00:59.027Z,960.1
2022-11-06T11:01:59.163Z,960.08
2022-11-06T11:02:58.984Z,960.03
2022-11-06T11:04:59.223Z,960.02
2022-11-06T11:05:59.243Z,959.99
2022-11-06T11:06:59.000Z,960.03
2022-11-06T11:08:00.324Z,960.06
2022-11-06T11:08:59.000Z,960.01
2022-11-06T11:09:58.989Z,960.03
2022-11-06T11:11:04.714Z,960.04
2022-11-06T11:13:01.727Z,960.01
2022-11-06T11:13:59.194Z,959.98
2022-11-06T11:14:59.018Z,959.96
2022-11-06T11:16:59.121Z,959.89
2022-11-06T11:18:59.098Z,959.91
2022-11-06T11:19:59.155Z,959.87
2022-11-06T11:20:59.040Z,959.85
2022-11-06T11:21:59.036Z,959.84
2022-11-06T11:22:59.178Z,959.81
2022-11-06T11:24:59.127Z,959.82
2022-11-06T11:25:59.059Z,959.79
2022-11-06T11:26:59.129Z,959.75
2022-11-06T11:28:03.769Z,959.77
2022-11-06T11:28:59.167Z,959.74
2022-11-06T11:29:59.133Z,959.71
2022-11-06T11:30:59.190Z,959.73
2022-11-06T11:31:59.182Z,959.69
2022-11-06T11:32:59.061Z,959.66
2022-11-06T11:34:59.141Z,959.62
2022-11-06T11:35:59.082Z,959.6
2022-11-06T11:36:59.079Z,959.54
2022-11-06T11:37:59.067Z,959.48
2022-11-06T11:38:59.142Z,959.46
2022-11-06T11:40:59.070Z,959.48
2022-11-06T11:41:59.074Z,959.45
2022-11-06T11:42:59.075Z,959.42
2022-11-06T11:43:59.085Z,959.39
2022-11-06T11:44:59.079Z,959.41
2022-11-06T11:45:59.091Z,959.38
2022-11-06T11:46:59.187Z,959.32
2022-11-06T11:47:59.081Z,959.29
2022-11-06T11:48:59.096Z,959.26
2022-11-06T11:49:59.156Z,959.25
2022-11-06T11:50:59.103Z,959.23
2022-11-06T11:52:00.488Z,959.18
2022-11-06T11:52:59.097Z,959.21
2022-11-06T11:53:59.271Z,959.18
2022-11-06T11:55:59.396Z,959.22
2022-11-06T11:57:05.500Z,959.24
2022-11-06T11:57:59.129Z,959.23
2022-11-06T11:58:59.208Z,959.2
2022-11-06T11:59:59.272Z,959.21
2022-11-06T12:00:59.122Z,959.18
2022-11-06T12:01:59.256Z,959.16
2022-11-06T12:02:59.164Z,959.17
2022-11-06T12:03:59.132Z,959.16
2022-11-06T12:04:59.148Z,959.17
2022-11-06T12:05:59.140Z,959.22
2022-11-06T12:06:59.135Z,959.23
2022-11-06T12:09:59.292Z,959.25
2022-11-06T12:11:59.216Z,959.24
2022-11-06T12:12:59.262Z,959.18
2022-11-06T12:13:59.225Z,959.16
2022-11-06T12:14:59.144Z,959.13
2022-11-06T12:15:59.217Z,959.09
2022-11-06T12:16:59.159Z,959.04
2022-11-06T12:17:59.190Z,958.97
2022-11-06T12:18:59.327Z,958.93
2022-11-06T12:19:59.167Z,958.92
2022-11-06T12:20:59.164Z,958.9
2022-11-06T12:21:59.266Z,958.92
2022-11-06T12:23:59.217Z,958.9
2022-11-06T12:24:59.178Z,958.88
2022-11-06T12:25:59.179Z,958.91
2022-11-06T12:26:59.298Z,958.86
2022-11-06T12:27:59.350Z,958.82
2022-11-06T12:29:04.822Z,958.79
2022-11-06T12:29:59.183Z,958.82
2022-11-06T12:30:59.268Z,958.86
2022-11-06T12:31:59.196Z,958.88
2022-11-06T12:32:59.212Z,958.86
2022-11-06T12:34:05.949Z,958.87
2022-11-06T12:34:59.303Z,958.88
2022-11-06T12:35:59.313Z,958.89
2022-11-06T12:36:59.206Z,958.84
2022-11-06T12:37:59.347Z,958.82
2022-11-06T12:38:59.325Z,958.78
2022-11-06T12:39:59.311Z,958.79
2022-11-06T12:40:59.209Z,958.78
2022-11-06T12:42:59.288Z,958.72
2022-11-06T12:43:59.259Z,958.71
2022-11-06T12:44:59.226Z,958.63
2022-11-06T12:45:59.289Z,958.67
2022-11-06T12:46:59.288Z,958.66
2022-11-06T12:47:59.239Z,958.65
2022-11-06T12:49:59.309Z,958.64
2022-11-06T12:50:59.345Z,958.61
2022-11-06T12:53:03.521Z,958.6
2022-11-06T12:53:59.467Z,958.59
2022-11-06T12:54:59.307Z,958.6
2022-11-06T12:55:59.246Z,958.57
2022-11-06T12:56:59.250Z,958.59
2022-11-06T12:57:59.262Z,958.54
2022-11-06T12:58:59.252Z,958.5
2022-11-06T12:59:59.262Z,958.47
2022-11-06T13:01:59.534Z,958.48
2022-11-06T13:02:59.281Z,958.46
2022-11-06T13:04:59.311Z,958.43
2022-11-06T13:05:59.284Z,958.42
2022-11-06T13:06:59.427Z,958.43
2022-11-06T13:07:59.279Z,958.38
2022-11-06T13:08:59.272Z,958.37
2022-11-06T13:10:00.379Z,958.32
2022-11-06T13:10:59.279Z,958.3
2022-11-06T13:11:59.290Z,958.33
2022-11-06T13:12:59.284Z,958.32
2022-11-06T13:13:59.321Z,958.35
2022-11-06T13:14:59.373Z,958.42
2022-11-06T13:15:59.309Z,958.39
2022-11-06T13:16:59.302Z,958.35
2022-11-06T13:17:59.320Z,958.34
2022-11-06T13:18:59.301Z,958.35
2022-11-06T13:19:59.304Z,958.38
2022-11-06T13:20:59.304Z,958.33
2022-11-06T13:21:59.430Z,958.29
2022-11-06T13:23:59.472Z,958.31
2022-11-06T13:24:59.365Z,958.29
2022-11-06T13:25:59.317Z,958.28
2022-11-06T13:28:59.438Z,958.27
2022-11-06T13:29:59.480Z,958.26
2022-11-06T13:30:59.335Z,958.25
2022-11-06T13:32:59.381Z,958.23
2022-11-06T13:33:59.343Z,958.24
2022-11-06T13:34:59.494Z,958.22
2022-11-06T13:35:59.344Z,958.2
2022-11-06T13:36:59.354Z,958.27
2022-11-06T13:37:59.350Z,958.25
2022-11-06T13:38:59.434Z,958.26
2022-11-06T13:41:03.420Z,958.28
2022-11-06T13:41:59.358Z,958.25
2022-11-06T13:43:59.403Z,958.26
2022-11-06T13:44:59.383Z,958.34
2022-11-06T13:45:59.375Z,958.43
2022-11-06T13:46:59.478Z,958.49
2022-11-06T13:47:59.376Z,958.46
2022-11-06T13:48:59.475Z,958.5
2022-11-06T13:49:59.604Z,958.49
2022-11-06T13:50:59.482Z,958.45
2022-11-06T13:51:59.447Z,958.4
2022-11-06T13:52:59.387Z,958.34
2022-11-06T13:53:59.975Z,958.33
2022-11-06T13:54:59.394Z,958.24
2022-11-06T13:56:59.484Z,958.25
2022-11-06T13:57:59.413Z,958.16
2022-11-06T13:58:59.559Z,958.2
2022-11-06T13:59:59.521Z,958.15
2022-11-06T14:00:59.646Z,958.16
2022-11-06T14:01:59.777Z,958.17
2022-11-06T14:02:59.406Z,958.2
2022-11-06T14:03:59.416Z,958.24
2022-11-06T14:04:59.574Z,958.25
2022-11-06T14:05:59.539Z,958.29
2022-11-06T14:06:59.435Z,958.32
2022-11-06T14:07:59.426Z,958.35
2022-11-06T14:08:59.443Z,958.39
2022-11-06T14:09:59.427Z,958.38
2022-11-06T14:10:59.430Z,958.45
2022-11-06T14:11:59.549Z,958.47
2022-11-06T14:12:59.433Z,958.49
2022-11-06T14:13:59.472Z,958.53
2022-11-06T14:14:59.552Z,958.42
2022-11-06T14:15:59.450Z,958.35
2022-11-06T14:16:59.436Z,958.32